Time;durP1;ratioP1;P1;durP2;ratioP2;P2;SDS_P1;SDS_P2;PMS_P1;PMS_P2;Temp;Humidity;BMP_temperature;BMP_pressure;BME280_temperature;BME280_humidity;BME280_pressure;Samples;Min_cycle;Max_cycle;Signal;HPM_P1;HPM_P2
2023/12/02 00:01:57;;;;;;;2.30;2.20;;;3.80;99.10;;;;;;4953577;29;20544;-61
2023/12/02 00:04:23;;;;;;;1.33;1.27;;;3.70;98.90;;;;;;4953129;29;20208;-60
2023/12/02 00:06:49;;;;;;;0.40;0.40;;;3.70;99.00;;;;;;4953268;29;20613;-61
2023/12/02 00:09:14;;;;;;;3.13;1.17;;;3.70;99.00;;;;;;4953280;29;20206;-61
2023/12/02 00:11:40;;;;;;;0.90;0.90;;;3.60;99.00;;;;;;4936197;29;20174;-61
2023/12/02 00:14:06;;;;;;;0.40;0.40;;;3.60;99.20;;;;;;4952880;29;20193;-61
2023/12/02 00:16:31;;;;;;;0.53;0.53;;;3.60;99.20;;;;;;4936158;29;20197;-60
2023/12/02 00:18:57;;;;;;;1.73;1.63;;;3.70;99.20;;;;;;4953238;29;20169;-61
2023/12/02 00:21:22;;;;;;;0.40;0.40;;;3.70;99.10;;;;;;4953294;29;20165;-61
2023/12/02 00:23:48;;;;;;;0.87;0.57;;;3.70;99.10;;;;;;4952922;29;20248;-60
2023/12/02 00:26:14;;;;;;;0.70;0.70;;;3.70;99.20;;;;;;4953484;29;20193;-61
2023/12/02 00:28:39;;;;;;;0.50;0.50;;;3.70;99.20;;;;;;4953116;29;20702;-61
2023/12/02 00:31:05;;;;;;;0.30;0.30;;;3.70;99.40;;;;;;4936105;29;20676;-61
2023/12/02 00:33:31;;;;;;;0.40;0.40;;;3.70;99.50;;;;;;4936086;29;20201;-61
2023/12/02 00:35:56;;;;;;;0.33;0.33;;;3.70;99.70;;;;;;4953153;29;20178;-61
2023/12/02 00:38:22;;;;;;;1.17;0.80;;;3.70;99.60;;;;;;4953069;29;20196;-60
2023/12/02 00:40:48;;;;;;;0.57;0.57;;;3.60;99.50;;;;;;4935916;29;20277;-61
2023/12/02 00:43:14;;;;;;;0.73;0.73;;;3.60;99.70;;;;;;4952603;29;20260;-61
2023/12/02 00:45:39;;;;;;;0.50;0.50;;;3.60;99.80;;;;;;4952870;29;20196;-61
2023/12/02 00:48:05;;;;;;;0.40;0.40;;;3.70;99.80;;;;;;4935915;28;20205;-61
2023/12/02 00:50:30;;;;;;;0.50;0.50;;;3.70;99.80;;;;;;4956239;29;20184;-61
2023/12/02 00:52:56;;;;;;;1.47;0.43;;;3.80;99.50;;;;;;4955872;29;20209;-61
2023/12/02 00:55:22;;;;;;;0.63;0.63;;;3.80;99.40;;;;;;4956329;29;20232;-61
2023/12/02 00:57:48;;;;;;;0.33;0.33;;;3.80;99.20;;;;;;4956258;29;20502;-61
2023/12/02 01:00:15;;;;;;;0.40;0.40;;;3.70;99.30;;;;;;4956333;29;20448;-61
2023/12/02 01:02:41;;;;;;;0.50;0.50;;;3.80;99.50;;;;;;4955313;29;20695;-61
2023/12/02 01:05:07;;;;;;;0.40;0.40;;;3.80;99.40;;;;;;4955947;29;20195;-60
2023/12/02 01:07:33;;;;;;;0.75;0.50;;;3.80;99.30;;;;;;4938886;29;20185;-61
2023/12/02 01:09:59;;;;;;;0.40;0.40;;;3.80;99.40;;;;;;4956006;29;20169;-61
2023/12/02 01:12:24;;;;;;;1.03;0.80;;;3.70;99.50;;;;;;4955796;29;20192;-60
2023/12/02 01:14:50;;;;;;;0.40;0.40;;;3.70;99.50;;;;;;4955852;29;20241;-61
2023/12/02 01:17:16;;;;;;;0.40;0.40;;;3.70;99.70;;;;;;4939160;29;20204;-60
2023/12/02 01:19:44;;;;;;;0.30;0.30;;;3.70;99.90;;;;;;4939097;29;20266;-60
2023/12/02 01:22:09;;;;;;;0.38;0.38;;;3.80;99.90;;;;;;4938531;29;20643;-60
2023/12/02 01:24:35;;;;;;;0.50;0.50;;;3.90;99.60;;;;;;4955763;29;20236;-60
2023/12/02 01:27:00;;;;;;;0.40;0.40;;;3.80;99.40;;;;;;4955686;29;20643;-60
2023/12/02 01:29:29;;;;;;;0.37;0.37;;;3.90;99.50;;;;;;4955636;29;20224;-60
2023/12/02 01:31:55;;;;;;;0.85;0.85;;;3.90;99.60;;;;;;4955955;29;20196;-60
2023/12/02 01:34:20;;;;;;;0.50;0.50;;;3.80;99.50;;;;;;4938167;29;20201;-60
2023/12/02 01:36:46;;;;;;;0.63;0.63;;;3.80;99.40;;;;;;4955506;29;20727;-61
2023/12/02 01:39:12;;;;;;;0.40;0.40;;;3.80;99.20;;;;;;4955754;29;20169;-61
2023/12/02 01:41:38;;;;;;;0.40;0.40;;;3.80;99.20;;;;;;4955386;29;20178;-61
2023/12/02 01:44:04;;;;;;;0.40;0.40;;;3.80;99.30;;;;;;4955100;29;20193;-61
2023/12/02 01:46:30;;;;;;;0.30;0.30;;;3.70;99.30;;;;;;4955411;29;20257;-61
2023/12/02 01:48:58;;;;;;;0.40;0.40;;;3.60;99.30;;;;;;4955262;29;20233;-61
2023/12/02 01:51:24;;;;;;;0.50;0.50;;;3.60;99.80;;;;;;4938459;29;20703;-61
2023/12/02 01:53:50;;;;;;;0.75;0.75;;;3.50;99.30;;;;;;4954745;29;20253;-61
2023/12/02 01:56:17;;;;;;;0.50;0.50;;;3.50;99.20;;;;;;4955143;29;20193;-61
2023/12/02 01:58:45;;;;;;;0.30;0.30;;;3.50;99.40;;;;;;4955337;29;20198;-61
2023/12/02 02:01:12;;;;;;;0.40;0.40;;;3.50;99.30;;;;;;4954154;28;20727;-61
2023/12/02 02:03:38;;;;;;;0.57;0.55;;;3.40;99.20;;;;;;4955151;29;20197;-61
2023/12/02 02:06:05;;;;;;;0.80;0.80;;;3.40;99.30;;;;;;4955032;29;20376;-61
2023/12/02 02:08:30;;;;;;;0.60;0.60;;;3.30;99.20;;;;;;4954685;29;20453;-61
2023/12/02 02:10:59;;;;;;;1.60;1.33;;;3.40;99.40;;;;;;4954836;29;20500;-61
2023/12/02 02:13:27;;;;;;;0.40;0.40;;;3.30;99.20;;;;;;4954557;29;20193;-61
2023/12/02 02:15:53;;;;;;;2.25;2.15;;;3.20;99.20;;;;;;4954807;29;20205;-61
2023/12/02 02:18:19;;;;;;;1.30;0.60;;;3.40;99.30;;;;;;4954760;29;20526;-61
2023/12/02 02:20:53;;;;;;;0.70;0.70;;;3.50;99.30;;;;;;4937461;29;20272;-61
2023/12/02 02:23:20;;;;;;;0.57;0.57;;;3.50;98.90;;;;;;4954109;29;20468;-61
2023/12/02 02:25:46;;;;;;;0.60;0.60;;;3.50;98.90;;;;;;4954401;29;20197;-61
2023/12/02 02:28:12;;;;;;;0.30;0.30;;;3.40;99.00;;;;;;4954512;29;20280;-61
2023/12/02 02:30:37;;;;;;;0.43;0.43;;;3.40;99.00;;;;;;4954512;29;20209;-61
2023/12/02 02:33:03;;;;;;;1.10;1.00;;;3.40;99.00;;;;;;4954227;29;20194;-61
2023/12/02 02:35:32;;;;;;;0.50;0.50;;;3.30;98.90;;;;;;4954150;29;20417;-61
2023/12/02 02:37:58;;;;;;;0.40;0.40;;;3.30;99.00;;;;;;4937278;29;20189;-61
2023/12/02 02:40:24;;;;;;;0.30;0.30;;;3.30;99.00;;;;;;4954483;29;20182;-61
2023/12/02 02:42:49;;;;;;;0.40;0.40;;;3.40;99.10;;;;;;4954064;29;20247;-60
2023/12/02 02:45:15;;;;;;;0.40;0.40;;;3.30;99.00;;;;;;4937112;29;20232;-61
2023/12/02 02:47:41;;;;;;;0.35;0.35;;;3.20;99.00;;;;;;4954166;29;20231;-60
2023/12/02 02:50:07;;;;;;;0.50;0.50;;;3.20;98.90;;;;;;4937010;29;20260;-61
2023/12/02 02:52:33;;;;;;;0.63;0.63;;;3.10;99.00;;;;;;4953060;29;20217;-61
2023/12/02 02:54:58;;;;;;;0.53;0.53;;;3.10;99.10;;;;;;4953940;29;20200;-61
2023/12/02 02:57:25;;;;;;;0.40;0.40;;;3.20;99.20;;;;;;4954014;29;20180;-60
2023/12/02 02:59:51;;;;;;;0.40;0.40;;;3.30;98.90;;;;;;4954033;29;20646;-60
2023/12/02 03:02:17;;;;;;;0.80;0.80;;;3.40;98.80;;;;;;4953481;29;20276;-61
2023/12/02 03:04:42;;;;;;;0.47;0.47;;;3.40;98.60;;;;;;4954241;29;20184;-61
2023/12/02 03:07:08;;;;;;;0.40;0.40;;;3.30;98.50;;;;;;4953742;29;20174;-61
2023/12/02 03:09:34;;;;;;;1.33;0.80;;;3.40;98.60;;;;;;4953867;29;20295;-61
2023/12/02 03:12:02;;;;;;;0.73;0.73;;;3.30;98.60;;;;;;4952225;28;20406;-61
2023/12/02 03:14:27;;;;;;;0.40;0.40;;;3.30;98.70;;;;;;4936217;29;20694;-60
2023/12/02 03:16:53;;;;;;;0.60;0.60;;;3.20;98.70;;;;;;4953595;29;20264;-61
2023/12/02 03:19:20;;;;;;;0.80;0.80;;;3.30;98.90;;;;;;4954524;29;20191;-61
2023/12/02 03:21:46;;;;;;;0.80;0.80;;;3.30;98.80;;;;;;4953757;29;20694;-61
2023/12/02 03:24:11;;;;;;;0.50;0.50;;;3.20;98.70;;;;;;4953441;29;20237;-61
2023/12/02 03:26:37;;;;;;;0.63;0.63;;;3.20;98.80;;;;;;4953633;29;20192;-61
2023/12/02 03:29:04;;;;;;;0.57;0.50;;;3.10;98.90;;;;;;4946208;29;20240;-61
2023/12/02 03:31:29;;;;;;;0.50;0.50;;;3.00;98.90;;;;;;4934331;29;20599;-61
2023/12/02 03:33:55;;;;;;;0.63;0.63;;;3.10;99.20;;;;;;4934101;29;20194;-61
2023/12/02 03:36:21;;;;;;;0.50;0.50;;;3.20;99.00;;;;;;4934347;29;20179;-61
2023/12/02 03:38:46;;;;;;;0.40;0.40;;;3.30;98.70;;;;;;4934367;29;20241;-61
2023/12/02 03:41:12;;;;;;;0.40;0.40;;;3.30;98.50;;;;;;4934361;29;20174;-60
2023/12/02 03:43:38;;;;;;;0.40;0.40;;;3.30;98.40;;;;;;4934026;29;20190;-60
2023/12/02 03:46:04;;;;;;;4.73;1.23;;;3.20;98.50;;;;;;4934173;29;20178;-60
2023/12/02 03:48:30;;;;;;;1.70;0.60;;;3.10;98.40;;;;;;4934494;29;20484;-61
2023/12/02 03:50:56;;;;;;;8.20;1.07;;;3.00;98.40;;;;;;4934442;29;20897;-61
2023/12/02 03:53:22;;;;;;;0.40;0.40;;;2.90;98.80;;;;;;4933875;29;20453;-61
2023/12/02 03:55:47;;;;;;;0.50;0.50;;;2.90;98.60;;;;;;4934357;29;20675;-60
2023/12/02 03:58:13;;;;;;;0.60;0.60;;;2.90;98.40;;;;;;4934207;29;20244;-60
2023/12/02 04:00:41;;;;;;;1.07;1.07;;;2.90;98.50;;;;;;4934087;29;20180;-60
2023/12/02 04:03:06;;;;;;;1.35;0.80;;;2.90;98.30;;;;;;4933824;29;20209;-60
2023/12/02 04:05:33;;;;;;;0.50;0.50;;;2.90;98.40;;;;;;4934055;29;20178;-60
2023/12/02 04:07:59;;;;;;;0.40;0.40;;;2.90;98.50;;;;;;4933899;29;20598;-60
2023/12/02 04:10:24;;;;;;;1.00;0.60;;;2.90;98.70;;;;;;4933937;29;20175;-61
2023/12/02 04:12:50;;;;;;;0.80;0.80;;;2.80;98.70;;;;;;4933655;29;20276;-61
2023/12/02 04:15:15;;;;;;;0.63;0.60;;;2.80;98.80;;;;;;4933867;29;20167;-61
2023/12/02 04:17:42;;;;;;;0.40;0.40;;;2.80;98.80;;;;;;4934094;29;20649;-61
2023/12/02 04:20:15;;;;;;;1.05;1.05;;;2.90;98.90;;;;;;4934413;29;20205;-60
2023/12/02 04:22:40;;;;;;;13.88;1.30;;;2.90;98.80;;;;;;4933450;29;20692;-61
2023/12/02 04:25:07;;;;;;;0.80;0.80;;;2.90;98.80;;;;;;4936636;29;20261;-61
2023/12/02 04:27:32;;;;;;;0.45;0.45;;;3.00;98.40;;;;;;4920442;29;20256;-60
2023/12/02 04:29:58;;;;;;;0.50;0.50;;;3.00;98.40;;;;;;4937561;29;20213;-61
2023/12/02 04:32:24;;;;;;;0.50;0.50;;;3.00;98.50;;;;;;4937350;29;20174;-60
2023/12/02 04:34:50;;;;;;;0.50;0.50;;;3.10;98.30;;;;;;4920173;29;20321;-60
2023/12/02 04:37:17;;;;;;;1.13;0.82;;;3.00;98.30;;;;;;4937344;29;20661;-60
2023/12/02 04:39:44;;;;;;;1.05;1.05;;;3.00;98.30;;;;;;4937427;29;20197;-61
2023/12/02 04:42:10;;;;;;;0.88;0.60;;;3.00;98.30;;;;;;4937408;29;20170;-60
2023/12/02 04:44:35;;;;;;;1.80;0.60;;;3.00;98.20;;;;;;4937200;29;20660;-61
2023/12/02 04:47:01;;;;;;;0.40;0.40;;;3.00;98.30;;;;;;4937338;29;20226;-60
2023/12/02 04:49:27;;;;;;;0.40;0.40;;;3.00;98.20;;;;;;4937108;29;20245;-61
2023/12/02 04:51:54;;;;;;;0.40;0.40;;;2.90;98.20;;;;;;4937359;29;20586;-61
2023/12/02 04:54:21;;;;;;;0.50;0.50;;;3.00;98.30;;;;;;4936775;29;20265;-61
2023/12/02 04:56:47;;;;;;;0.70;0.63;;;3.00;98.20;;;;;;4937042;29;20653;-59
2023/12/02 04:59:12;;;;;;;0.40;0.40;;;2.90;98.20;;;;;;4937041;29;20193;-60
2023/12/02 05:01:38;;;;;;;0.40;0.40;;;2.90;98.30;;;;;;4920210;29;20183;-61
2023/12/02 05:04:05;;;;;;;0.60;0.60;;;2.90;98.40;;;;;;4919654;29;20209;-60
2023/12/02 05:06:31;;;;;;;0.50;0.50;;;2.90;98.30;;;;;;4936857;29;20182;-61
2023/12/02 05:08:57;;;;;;;0.80;0.80;;;2.90;98.40;;;;;;4936883;29;20268;-60
2023/12/02 05:11:23;;;;;;;0.50;0.50;;;2.90;98.60;;;;;;4936782;29;20421;-60
2023/12/02 05:13:52;;;;;;;8.23;1.90;;;2.90;98.60;;;;;;4936258;29;20199;-60
2023/12/02 05:16:18;;;;;;;1.20;0.82;;;2.80;98.50;;;;;;4936766;29;20653;-61
2023/12/02 05:18:44;;;;;;;1.13;1.02;;;2.80;98.70;;;;;;4936697;29;20221;-61
2023/12/02 05:21:10;;;;;;;0.40;0.40;;;2.90;98.70;;;;;;4936884;29;20210;-61
2023/12/02 05:23:36;;;;;;;0.60;0.60;;;2.90;98.60;;;;;;4936306;29;20219;-61
2023/12/02 05:26:03;;;;;;;0.38;0.38;;;2.90;98.60;;;;;;4936367;29;20186;-60
2023/12/02 05:28:29;;;;;;;0.40;0.40;;;3.00;98.50;;;;;;4936410;29;20206;-60
2023/12/02 05:30:55;;;;;;;0.75;0.75;;;2.90;98.50;;;;;;4919755;29;20531;-60
2023/12/02 05:33:24;;;;;;;0.40;0.40;;;2.90;98.50;;;;;;4935443;29;20336;-60
2023/12/02 05:35:50;;;;;;;0.30;0.30;;;2.80;98.40;;;;;;4936352;29;20181;-61
2023/12/02 05:38:16;;;;;;;0.40;0.40;;;2.80;98.20;;;;;;4936198;29;20196;-60
2023/12/02 05:40:42;;;;;;;0.40;0.40;;;2.80;98.00;;;;;;4936168;29;20178;-60
2023/12/02 05:43:08;;;;;;;0.82;0.82;;;2.70;97.90;;;;;;4935977;29;20437;-60
2023/12/02 05:45:34;;;;;;;0.67;0.67;;;2.50;98.00;;;;;;4936208;29;20265;-60
2023/12/02 05:48:00;;;;;;;0.40;0.40;;;2.50;98.20;;;;;;4936009;29;20712;-61
2023/12/02 05:50:26;;;;;;;0.50;0.50;;;2.40;98.40;;;;;;4936172;29;20623;-60
2023/12/02 05:52:52;;;;;;;0.50;0.50;;;2.30;98.60;;;;;;4935719;29;20206;-61
2023/12/02 05:55:18;;;;;;;0.30;0.30;;;2.40;98.80;;;;;;4935653;29;20675;-60
2023/12/02 05:57:44;;;;;;;1.27;1.27;;;2.30;98.80;;;;;;4918923;29;20922;-60
2023/12/02 06:00:10;;;;;;;0.40;0.40;;;2.30;98.80;;;;;;4918794;29;20446;-60
2023/12/02 06:02:36;;;;;;;5.68;2.05;;;2.40;98.70;;;;;;4935787;29;20194;-60
2023/12/02 06:05:02;;;;;;;0.40;0.40;;;2.50;98.70;;;;;;4935800;29;20253;-61
2023/12/02 06:07:29;;;;;;;0.50;0.50;;;2.60;98.50;;;;;;4919329;29;20616;-60
2023/12/02 06:09:54;;;;;;;0.88;0.88;;;2.60;98.40;;;;;;4935632;29;20202;-61
2023/12/02 06:12:20;;;;;;;0.63;0.63;;;2.70;98.40;;;;;;4935540;29;20174;-60
2023/12/02 06:14:46;;;;;;;0.40;0.40;;;2.70;98.40;;;;;;4935195;29;20197;-60
2023/12/02 06:17:11;;;;;;;0.40;0.40;;;2.70;98.40;;;;;;4935439;29;20186;-60
2023/12/02 06:19:37;;;;;;;0.40;0.40;;;2.70;98.30;;;;;;4935648;29;20174;-60
2023/12/02 06:22:03;;;;;;;0.80;0.80;;;2.60;98.40;;;;;;4934728;29;20542;-60
2023/12/02 06:24:28;;;;;;;0.60;0.50;;;2.50;98.50;;;;;;4933813;29;20438;-61
2023/12/02 06:26:54;;;;;;;1.00;1.00;;;2.50;98.70;;;;;;4935505;29;20193;-60
2023/12/02 06:29:20;;;;;;;0.60;0.50;;;2.50;98.90;;;;;;4935511;29;20583;-60
2023/12/02 06:31:50;;;;;;;0.30;0.30;;;2.60;98.90;;;;;;4935430;29;20417;-58
2023/12/02 06:34:16;;;;;;;2.05;0.60;;;2.80;98.70;;;;;;4934406;29;20209;-60
2023/12/02 06:36:44;;;;;;;0.80;0.80;;;2.80;98.60;;;;;;4935287;29;20566;-60
2023/12/02 06:39:12;;;;;;;0.40;0.40;;;2.90;98.70;;;;;;4935317;29;20660;-60
2023/12/02 06:41:41;;;;;;;5.00;2.15;;;2.80;98.50;;;;;;4935386;29;20217;-60
2023/12/02 06:44:08;;;;;;;0.40;0.40;;;2.80;98.50;;;;;;4935151;29;20209;-60
2023/12/02 06:46:34;;;;;;;3.05;0.68;;;2.80;98.80;;;;;;4934629;29;20194;-60
2023/12/02 06:49:00;;;;;;;0.40;0.40;;;2.80;98.50;;;;;;4935127;29;20190;-61
2023/12/02 06:51:28;;;;;;;0.80;0.60;;;2.70;98.30;;;;;;4935016;29;20245;-60
2023/12/02 06:53:58;;;;;;;0.50;0.50;;;2.60;98.10;;;;;;4933289;29;20272;-60
2023/12/02 06:56:25;;;;;;;1.75;1.05;;;2.40;98.20;;;;;;4933824;29;20197;-60
2023/12/02 06:58:52;;;;;;;0.50;0.50;;;2.30;98.40;;;;;;4935094;29;20181;-60
2023/12/02 07:01:28;;;;;;;0.50;0.50;;;2.20;98.60;;;;;;4933493;29;20280;-60
2023/12/02 07:03:58;;;;;;;0.82;0.82;;;2.20;98.70;;;;;;4934516;29;20204;-60
2023/12/02 07:06:25;;;;;;;0.50;0.40;;;2.20;98.80;;;;;;4934865;29;20181;-59
2023/12/02 07:08:52;;;;;;;0.30;0.30;;;2.30;98.90;;;;;;4934689;29;20198;-60
2023/12/02 07:11:18;;;;;;;1.05;1.05;;;2.40;98.80;;;;;;4934811;29;20174;-60
2023/12/02 07:13:44;;;;;;;0.70;0.70;;;2.40;98.80;;;;;;4933135;29;20740;-60
2023/12/02 07:16:10;;;;;;;0.40;0.40;;;2.50;98.70;;;;;;4934576;29;20454;-60
2023/12/02 07:18:36;;;;;;;0.40;0.40;;;2.50;98.60;;;;;;4934497;29;20190;-59
2023/12/02 07:21:02;;;;;;;0.50;0.50;;;2.60;98.50;;;;;;4934695;29;20736;-60
2023/12/02 07:23:31;;;;;;;1.23;1.23;;;2.60;98.40;;;;;;4934219;29;20202;-60
2023/12/02 07:25:58;;;;;;;0.40;0.40;;;2.60;98.40;;;;;;4934447;29;20414;-60
2023/12/02 07:28:23;;;;;;;1.08;0.65;;;2.70;98.10;;;;;;4934678;29;20202;-60
2023/12/02 07:30:49;;;;;;;1.90;0.80;;;2.70;98.10;;;;;;4935569;29;20188;-60
2023/12/02 07:33:16;;;;;;;3.30;0.90;;;2.70;97.80;;;;;;4933900;29;20426;-60
2023/12/02 07:35:42;;;;;;;0.35;0.35;;;2.70;97.80;;;;;;4934351;29;20666;-60
2023/12/02 07:38:08;;;;;;;0.80;0.80;;;2.50;97.80;;;;;;4934229;29;20190;-60
2023/12/02 07:40:35;;;;;;;0.40;0.40;;;2.50;98.20;;;;;;4934533;29;20189;-60
2023/12/02 07:43:01;;;;;;;1.52;1.40;;;2.50;98.20;;;;;;4933966;29;20213;-60
2023/12/02 07:45:27;;;;;;;0.88;0.65;;;2.50;98.20;;;;;;4934365;29;20591;-60
2023/12/02 07:47:54;;;;;;;0.40;0.40;;;2.40;98.10;;;;;;4934325;29;20256;-60
2023/12/02 07:50:20;;;;;;;0.68;0.68;;;2.40;98.10;;;;;;4934974;29;20773;-60
2023/12/02 07:52:46;;;;;;;0.45;0.45;;;2.40;98.10;;;;;;4934229;29;20576;-61
2023/12/02 07:55:13;;;;;;;1.70;1.60;;;2.50;98.20;;;;;;4933399;29;20209;-60
2023/12/02 07:57:39;;;;;;;0.70;0.65;;;2.50;98.20;;;;;;4948380;28;20433;-61
2023/12/02 08:00:09;;;;;;;0.40;0.40;;;2.50;98.20;;;;;;4955725;29;20667;-60
2023/12/02 08:02:34;;;;;;;0.40;0.40;;;2.60;98.10;;;;;;4939239;29;20205;-60
2023/12/02 08:05:00;;;;;;;0.47;0.47;;;2.70;97.80;;;;;;4939700;29;20616;-60
2023/12/02 08:07:26;;;;;;;1.03;0.57;;;2.80;97.80;;;;;;4937720;29;20170;-61
2023/12/02 08:09:51;;;;;;;0.60;0.47;;;2.80;97.20;;;;;;4937970;29;20201;-61
2023/12/02 08:12:17;;;;;;;1.33;1.33;;;2.80;96.40;;;;;;4920886;29;20177;-61
2023/12/02 08:14:43;;;;;;;0.73;0.73;;;2.80;96.70;;;;;;4937617;29;20174;-61
2023/12/02 08:17:08;;;;;;;0.60;0.60;;;2.80;96.80;;;;;;4937840;29;20170;-60
2023/12/02 08:19:35;;;;;;;1.47;1.37;;;2.80;96.50;;;;;;4938221;29;20601;-60
2023/12/02 08:22:01;;;;;;;0.60;0.60;;;2.80;96.60;;;;;;4938069;29;20194;-60
2023/12/02 08:24:26;;;;;;;0.40;0.40;;;2.80;96.30;;;;;;4937899;29;20292;-58
2023/12/02 08:26:52;;;;;;;0.53;0.53;;;2.80;96.40;;;;;;4937696;29;20417;-60
2023/12/02 08:29:18;;;;;;;0.70;0.70;;;2.90;96.40;;;;;;4937944;29;20577;-60
2023/12/02 08:31:43;;;;;;;1.43;1.43;;;2.90;96.10;;;;;;4937669;29;20281;-59
2023/12/02 08:34:09;;;;;;;5.93;1.47;;;2.90;95.40;;;;;;4937630;29;20212;-59
2023/12/02 08:36:35;;;;;;;1.67;1.57;;;2.90;95.10;;;;;;4938016;29;20184;-59
2023/12/02 08:39:03;;;;;;;1.17;0.80;;;2.80;94.50;;;;;;4921203;29;20422;-60
2023/12/02 08:41:29;;;;;;;2.05;1.75;;;2.80;95.20;;;;;;4937954;29;20182;-60
2023/12/02 08:43:54;;;;;;;0.80;0.60;;;2.90;95.20;;;;;;4937318;29;20296;-60
2023/12/02 08:46:20;;;;;;;0.80;0.80;;;2.90;95.00;;;;;;4937613;29;20260;-60
2023/12/02 08:48:46;;;;;;;0.87;0.87;;;2.90;95.20;;;;;;4938371;29;20198;-60
2023/12/02 08:51:12;;;;;;;4.17;0.60;;;3.00;95.60;;;;;;4937745;29;20209;-60
2023/12/02 08:53:37;;;;;;;0.40;0.40;;;2.90;95.00;;;;;;4938157;29;20201;-60
2023/12/02 08:56:04;;;;;;;0.57;0.57;;;2.90;94.50;;;;;;4920161;29;20189;-60
2023/12/02 08:58:30;;;;;;;0.40;0.40;;;2.90;94.70;;;;;;4936950;29;20174;-61
2023/12/02 09:00:55;;;;;;;0.40;0.40;;;2.80;95.10;;;;;;4936994;29;20605;-62
2023/12/02 09:03:22;;;;;;;0.80;0.80;;;2.80;94.60;;;;;;4919343;29;20747;-61
2023/12/02 09:05:48;;;;;;;0.30;0.30;;;2.80;95.00;;;;;;4935829;29;20193;-59
2023/12/02 09:08:14;;;;;;;2.00;1.10;;;2.70;94.90;;;;;;4936945;29;20557;-59
2023/12/02 09:10:39;;;;;;;0.60;0.60;;;2.70;94.20;;;;;;4936272;29;20185;-60
2023/12/02 09:13:36;;;;;;;0.40;0.40;;;2.60;94.20;;;;;;4936045;29;20281;-59
2023/12/02 09:16:02;;;;;;;0.40;0.40;;;2.40;94.00;;;;;;4936109;29;20190;-58
2023/12/02 09:18:36;;;;;;;0.40;0.40;;;2.40;94.60;;;;;;4936683;29;20669;-59
2023/12/02 09:21:02;;;;;;;0.50;0.50;;;2.40;95.00;;;;;;4936616;29;20695;-60
2023/12/02 09:23:28;;;;;;;0.30;0.30;;;2.40;94.90;;;;;;4935985;29;20575;-60
2023/12/02 09:25:59;;;;;;;0.30;0.30;;;2.50;94.80;;;;;;4936939;29;20513;-59
2023/12/02 09:28:27;;;;;;;0.40;0.40;;;2.60;95.10;;;;;;4936617;29;20206;-59
2023/12/02 09:31:00;;;;;;;0.57;0.57;;;2.70;95.10;;;;;;4936853;29;20179;-58
2023/12/02 09:33:27;;;;;;;0.50;0.50;;;2.80;95.10;;;;;;4936426;29;20206;-59
2023/12/02 09:35:58;;;;;;;0.40;0.40;;;2.90;94.90;;;;;;4936576;29;20174;-60
2023/12/02 09:38:24;;;;;;;2.30;0.82;;;3.10;94.80;;;;;;4936482;29;20182;-59
2023/12/02 09:41:00;;;;;;;0.93;0.73;;;3.20;94.90;;;;;;4936329;29;20667;-60
2023/12/02 09:43:37;;;;;;;0.82;0.82;;;3.30;94.60;;;;;;4935834;29;20209;-57
2023/12/02 09:46:36;;;;;;;0.30;0.30;;;3.40;93.90;;;;;;4936234;29;20645;-57
2023/12/02 09:49:08;;;;;;;0.40;0.40;;;3.40;94.20;;;;;;4936450;29;20312;-60
2023/12/02 09:51:46;;;;;;;1.20;0.50;;;3.50;94.50;;;;;;4949400;29;20174;-60
2023/12/02 09:54:32;;;;;;;0.80;0.80;;;3.40;93.60;;;;;;4936008;29;20599;-60
2023/12/02 09:57:25;;;;;;;0.30;0.30;;;3.40;93.40;;;;;;4936454;29;20229;-59
2023/12/02 10:00:32;;;;;;;0.82;0.63;;;3.40;93.50;;;;;;4936069;29;20174;-59
2023/12/02 10:03:22;;;;;;;0.50;0.50;;;3.40;93.30;;;;;;4935442;29;20688;-59
2023/12/02 10:05:58;;;;;;;1.52;0.65;;;3.30;92.80;;;;;;4936087;29;20190;-59
2023/12/02 10:08:42;;;;;;;0.80;0.60;;;3.20;92.60;;;;;;4915441;29;20195;-57
2023/12/02 10:11:20;;;;;;;1.45;1.35;;;3.10;93.10;;;;;;4916691;29;20329;-59
2023/12/02 10:13:54;;;;;;;0.40;0.40;;;3.10;93.10;;;;;;4935305;29;20205;-60
2023/12/02 10:16:22;;;;;;;0.40;0.40;;;3.00;92.80;;;;;;4936169;29;20178;-59
2023/12/02 10:18:53;;;;;;;1.05;0.73;;;2.80;92.60;;;;;;4935630;29;20178;-60
2023/12/02 10:21:21;;;;;;;0.35;0.35;;;2.70;92.80;;;;;;4934746;29;20788;-60
2023/12/02 10:23:58;;;;;;;1.80;0.82;;;2.70;93.20;;;;;;4918225;29;20690;-59
2023/12/02 10:26:23;;;;;;;0.68;0.68;;;2.80;92.90;;;;;;4934618;29;20265;-59
2023/12/02 10:28:55;;;;;;;0.30;0.30;;;2.70;92.80;;;;;;4944083;29;20263;-59
2023/12/02 10:31:27;;;;;;;0.40;0.40;;;2.70;93.10;;;;;;4954331;29;20536;-59
2023/12/02 10:34:19;;;;;;;0.93;0.93;;;2.70;93.20;;;;;;4953708;29;20204;-60
2023/12/02 10:36:48;;;;;;;0.63;0.63;;;2.80;92.90;;;;;;4954144;29;20165;-59
2023/12/02 10:39:23;;;;;;;0.38;0.38;;;2.70;92.50;;;;;;4954534;29;20544;-59
2023/12/02 10:41:58;;;;;;;0.40;0.40;;;2.70;92.90;;;;;;4953717;29;20207;-59
2023/12/02 10:44:24;;;;;;;0.45;0.45;;;2.80;93.10;;;;;;4953774;29;20208;-59
2023/12/02 10:46:53;;;;;;;1.90;0.50;;;2.80;93.20;;;;;;4954145;29;20185;-60
2023/12/02 10:49:19;;;;;;;0.40;0.40;;;2.90;93.30;;;;;;4954210;29;20213;-59
2023/12/02 10:51:49;;;;;;;0.52;0.52;;;2.90;92.90;;;;;;4954297;29;20181;-59
2023/12/02 10:54:17;;;;;;;0.60;0.40;;;2.70;92.40;;;;;;4953739;29;20785;-59
2023/12/02 10:56:46;;;;;;;1.25;1.15;;;2.60;92.50;;;;;;4954150;29;20197;-59
2023/12/02 10:59:13;;;;;;;0.95;0.65;;;2.50;92.80;;;;;;4954104;29;20178;-58
2023/12/02 11:01:50;;;;;;;0.93;0.93;;;2.60;93.00;;;;;;4953503;29;20197;-60
2023/12/02 11:04:31;;;;;;;1.08;1.08;;;2.40;92.40;;;;;;4953722;29;20296;-60
2023/12/02 11:07:06;;;;;;;0.40;0.40;;;2.40;92.90;;;;;;4954202;29;20188;-59
2023/12/02 11:09:51;;;;;;;0.50;0.50;;;2.40;93.20;;;;;;4953839;29;20251;-59
2023/12/02 11:12:25;;;;;;;0.80;0.80;;;2.40;93.00;;;;;;4953904;29;20177;-60
2023/12/02 11:15:01;;;;;;;0.40;0.40;;;2.30;92.40;;;;;;4953475;29;20211;-60
2023/12/02 11:17:53;;;;;;;0.70;0.70;;;2.30;92.80;;;;;;4953853;29;20243;-59
2023/12/02 11:20:26;;;;;;;0.40;0.40;;;2.20;92.70;;;;;;4953762;29;20666;-59
2023/12/02 11:23:18;;;;;;;0.65;0.50;;;2.20;92.70;;;;;;4953615;29;20231;-60
2023/12/02 11:26:08;;;;;;;0.40;0.40;;;2.10;92.70;;;;;;4943280;29;20271;-59
2023/12/02 11:29:12;;;;;;;0.70;0.70;;;2.10;92.80;;;;;;4953569;29;20195;-59
2023/12/02 11:31:49;;;;;;;1.23;1.08;;;2.20;93.10;;;;;;4953569;29;20168;-59
2023/12/02 11:34:25;;;;;;;0.50;0.50;;;2.00;92.50;;;;;;4953209;28;20200;-59
2023/12/02 11:37:02;;;;;;;2.03;1.58;;;2.10;93.00;;;;;;4954338;29;20610;-59
2023/12/02 11:39:38;;;;;;;0.80;0.80;;;2.10;93.00;;;;;;4953642;29;20215;-60
2023/12/02 11:42:17;;;;;;;0.40;0.40;;;2.20;93.20;;;;;;4953482;29;20169;-59
2023/12/02 11:44:56;;;;;;;3.00;1.27;;;2.20;92.80;;;;;;4953344;29;20239;-60
2023/12/02 11:47:48;;;;;;;0.80;0.80;;;2.10;92.60;;;;;;4953441;29;20173;-60
2023/12/02 11:50:47;;;;;;;1.00;0.93;;;2.00;92.50;;;;;;4953468;29;20205;-59
2023/12/02 11:53:43;;;;;;;1.60;1.50;;;2.00;92.60;;;;;;4953023;29;20221;-60
2023/12/02 11:56:11;;;;;;;0.40;0.40;;;2.00;92.80;;;;;;4953402;29;20176;-60
2023/12/02 11:59:13;;;;;;;1.20;1.13;;;2.00;92.80;;;;;;4953460;29;20181;-59
2023/12/02 12:02:22;;;;;;;0.70;0.70;;;2.10;92.50;;;;;;4953412;29;20188;-59
2023/12/02 12:05:05;;;;;;;0.77;0.77;;;2.10;92.50;;;;;;4953160;29;20635;-59
2023/12/02 12:07:52;;;;;;;0.50;0.50;;;2.10;92.20;;;;;;4953216;29;20185;-56
2023/12/02 12:10:31;;;;;;;1.30;1.20;;;2.10;92.20;;;;;;4953131;29;20208;-59
2023/12/02 12:12:59;;;;;;;0.40;0.40;;;2.20;92.60;;;;;;4952968;29;20215;-59
2023/12/02 12:15:24;;;;;;;1.38;1.33;;;2.20;92.50;;;;;;4944467;29;20646;-60
2023/12/02 12:17:51;;;;;;;0.93;0.93;;;2.20;92.50;;;;;;4933951;29;20229;-60
2023/12/02 12:20:27;;;;;;;1.38;0.98;;;2.20;92.50;;;;;;4934031;29;20182;-59
2023/12/02 12:22:52;;;;;;;0.60;0.60;;;2.10;92.10;;;;;;4933740;29;20198;-60
2023/12/02 12:25:19;;;;;;;1.63;1.53;;;2.10;92.10;;;;;;4933908;29;20559;-59
2023/12/02 12:27:45;;;;;;;1.95;1.85;;;2.10;92.20;;;;;;4933870;29;20173;-60
2023/12/02 12:30:11;;;;;;;0.60;0.60;;;2.20;92.00;;;;;;4933867;29;20236;-59
2023/12/02 12:32:38;;;;;;;0.70;0.70;;;2.10;91.60;;;;;;4933626;29;20205;-60
2023/12/02 12:35:12;;;;;;;0.52;0.52;;;2.00;91.50;;;;;;4933186;29;20536;-59
2023/12/02 12:37:40;;;;;;;0.73;0.73;;;2.00;92.20;;;;;;4933981;29;20590;-60
2023/12/02 12:40:15;;;;;;;1.20;1.20;;;2.10;92.50;;;;;;4933276;29;20193;-60
2023/12/02 12:42:48;;;;;;;4.80;1.67;;;2.20;92.60;;;;;;4932803;29;20224;-59
2023/12/02 12:45:14;;;;;;;0.90;0.90;;;2.30;92.30;;;;;;4934508;29;20182;-59
2023/12/02 12:47:42;;;;;;;1.23;1.23;;;2.30;91.70;;;;;;4936989;29;20182;-59
2023/12/02 12:50:12;;;;;;;0.60;0.60;;;2.50;92.00;;;;;;4936288;29;20850;-59
2023/12/02 12:52:45;;;;;;;0.50;0.50;;;2.40;91.40;;;;;;4936898;29;20296;-59
2023/12/02 12:55:13;;;;;;;0.90;0.90;;;2.40;91.10;;;;;;4937025;29;20205;-59
2023/12/02 12:58:07;;;;;;;0.60;0.60;;;2.50;91.00;;;;;;4937631;29;20288;-60
2023/12/02 13:00:38;;;;;;;0.88;0.88;;;2.50;90.80;;;;;;4937163;29;20186;-60
2023/12/02 13:03:23;;;;;;;2.38;2.17;;;2.60;91.10;;;;;;4936381;29;20619;-59
2023/12/02 13:06:04;;;;;;;0.50;0.50;;;2.70;91.10;;;;;;4936994;29;20178;-60
2023/12/02 13:08:34;;;;;;;0.57;0.52;;;2.60;91.30;;;;;;4935117;29;20700;-59